sensor_id;sensor_type;location;lat;lon;timestamp;temperature;humidity
6752;DHT22;3413;47.680;9.166;2022-11-11T00:02:07;12.50;99.90
6752;DHT22;3413;47.680;9.166;2022-11-11T00:18:53;12.40;99.90
6752;DHT22;3413;47.680;9.166;2022-11-11T00:30:18;12.50;99.90
6752;DHT22;3413;47.680;9.166;2022-11-11T00:41:18;12.50;99.90
6752;DHT22;3413;47.680;9.166;2022-11-11T00:52:47;12.70;99.90
6752;DHT22;3413;47.680;9.166;2022-11-11T01:03:45;12.70;99.90
6752;DHT22;3413;47.680;9.166;2022-11-11T01:09:06;12.60;99.90
6752;DHT22;3413;47.680;9.166;2022-11-11T01:14:27;12.70;99.90
6752;DHT22;3413;47.680;9.166;2022-11-11T01:19:48;12.80;99.90
6752;DHT22;3413;47.680;9.166;2022-11-11T01:25:09;12.80;99.90
6752;DHT22;3413;47.680;9.166;2022-11-11T01:30:31;12.70;99.90
6752;DHT22;3413;47.680;9.166;2022-11-11T01:36:06;12.50;99.90
6752;DHT22;3413;47.680;9.166;2022-11-11T01:47:07;12.50;99.90
6752;DHT22;3413;47.680;9.166;2022-11-11T01:52:33;12.60;99.90
6752;DHT22;3413;47.680;9.166;2022-11-11T01:58:05;12.50;99.90
6752;DHT22;3413;47.680;9.166;2022-11-11T02:03:32;12.40;99.90
6752;DHT22;3413;47.680;9.166;2022-11-11T02:08:55;12.10;99.90
6752;DHT22;3413;47.680;9.166;2022-11-11T02:14:17;12.00;99.90
6752;DHT22;3413;47.680;9.166;2022-11-11T02:19:59;12.00;99.90
6752;DHT22;3413;47.680;9.166;2022-11-11T02:25:24;12.10;99.90
6752;DHT22;3413;47.680;9.166;2022-11-11T02:30:47;12.20;99.90
6752;DHT22;3413;47.680;9.166;2022-11-11T02:36:13;12.20;99.90
6752;DHT22;3413;47.680;9.166;2022-11-11T02:41:35;12.20;99.90
6752;DHT22;3413;47.680;9.166;2022-11-11T02:47:15;12.20;99.90
6752;DHT22;3413;47.680;9.166;2022-11-11T02:52:36;12.10;99.90
6752;DHT22;3413;47.680;9.166;2022-11-11T02:57:58;12.00;99.90
6752;DHT22;3413;47.680;9.166;2022-11-11T03:03:19;11.90;99.90
6752;DHT22;3413;47.680;9.166;2022-11-11T03:08:41;12.00;99.90
6752;DHT22;3413;47.680;9.166;2022-11-11T03:14:03;12.00;99.90
6752;DHT22;3413;47.680;9.166;2022-11-11T03:19:24;12.20;99.90
6752;DHT22;3413;47.680;9.166;2022-11-11T03:24:46;12.30;99.90
6752;DHT22;3413;47.680;9.166;2022-11-11T03:30:26;12.30;99.90
6752;DHT22;3413;47.680;9.166;2022-11-11T03:36:01;12.40;99.90
6752;DHT22;3413;47.680;9.166;2022-11-11T03:41:23;12.40;99.90
6752;DHT22;3413;47.680;9.166;2022-11-11T03:46:45;12.50;99.90
6752;DHT22;3413;47.680;9.166;2022-11-11T03:52:06;12.50;99.90
6752;DHT22;3413;47.680;9.166;2022-11-11T03:57:28;12.40;99.90
6752;DHT22;3413;47.680;9.166;2022-11-11T04:03:01;12.40;99.90
6752;DHT22;3413;47.680;9.166;2022-11-11T04:08:42;12.40;99.90
6752;DHT22;3413;47.680;9.166;2022-11-11T04:14:22;12.30;99.90
6752;DHT22;3413;47.680;9.166;2022-11-11T04:20:02;12.30;99.90
6752;DHT22;3413;47.680;9.166;2022-11-11T04:25:42;12.30;99.90
6752;DHT22;3413;47.680;9.166;2022-11-11T04:31:22;12.50;99.90
6752;DHT22;3413;47.680;9.166;2022-11-11T04:36:44;12.50;99.90
6752;DHT22;3413;47.680;9.166;2022-11-11T04:42:08;12.50;99.90
6752;DHT22;3413;47.680;9.166;2022-11-11T04:47:29;12.60;99.90
6752;DHT22;3413;47.680;9.166;2022-11-11T04:52:50;12.70;99.90
6752;DHT22;3413;47.680;9.166;2022-11-11T04:58:13;12.70;99.90
6752;DHT22;3413;47.680;9.166;2022-11-11T05:03:34;12.70;99.90
6752;DHT22;3413;47.680;9.166;2022-11-11T05:08:57;12.80;99.90
6752;DHT22;3413;47.680;9.166;2022-11-11T05:14:20;12.80;99.90
6752;DHT22;3413;47.680;9.166;2022-11-11T05:20:00;12.70;99.90
6752;DHT22;3413;47.680;9.166;2022-11-11T05:25:40;12.70;99.90
6752;DHT22;3413;47.680;9.166;2022-11-11T05:31:01;12.80;99.90
6752;DHT22;3413;47.680;9.166;2022-11-11T05:36:24;12.80;99.90
6752;DHT22;3413;47.680;9.166;2022-11-11T05:41:46;12.80;99.90
6752;DHT22;3413;47.680;9.166;2022-11-11T05:47:20;12.70;99.90
6752;DHT22;3413;47.680;9.166;2022-11-11T05:52:47;12.70;99.90
6752;DHT22;3413;47.680;9.166;2022-11-11T05:58:09;12.60;99.90
6752;DHT22;3413;47.680;9.166;2022-11-11T06:03:30;12.50;99.90
6752;DHT22;3413;47.680;9.166;2022-11-11T06:08:52;12.50;99.90
6752;DHT22;3413;47.680;9.166;2022-11-11T06:14:13;12.60;99.90
6752;DHT22;3413;47.680;9.166;2022-11-11T06:19:45;12.60;99.90
6752;DHT22;3413;47.680;9.166;2022-11-11T06:25:06;12.70;99.90
6752;DHT22;3413;47.680;9.166;2022-11-11T06:30:47;12.80;99.90
6752;DHT22;3413;47.680;9.166;2022-11-11T06:36:13;12.80;99.90
6752;DHT22;3413;47.680;9.166;2022-11-11T06:41:35;12.90;99.90
6752;DHT22;3413;47.680;9.166;2022-11-11T06:46:56;13.00;99.90
6752;DHT22;3413;47.680;9.166;2022-11-11T06:52:18;13.00;99.90
6752;DHT22;3413;47.680;9.166;2022-11-11T06:57:39;13.00;99.90
6752;DHT22;3413;47.680;9.166;2022-11-11T07:03:02;13.00;99.90
6752;DHT22;3413;47.680;9.166;2022-11-11T07:14:01;13.00;99.90
6752;DHT22;3413;47.680;9.166;2022-11-11T07:19:21;13.00;99.90
6752;DHT22;3413;47.680;9.166;2022-11-11T07:31:18;12.90;99.90
6752;DHT22;3413;47.680;9.166;2022-11-11T07:49:16;13.00;99.90
6752;DHT22;3413;47.680;9.166;2022-11-11T08:01:10;12.80;99.90
6752;DHT22;3413;47.680;9.166;2022-11-11T08:12:42;12.90;99.90
6752;DHT22;3413;47.680;9.166;2022-11-11T08:24:56;13.00;99.90
6752;DHT22;3413;47.680;9.166;2022-11-11T08:30:25;13.00;99.90
6752;DHT22;3413;47.680;9.166;2022-11-11T08:35:46;13.10;99.90
6752;DHT22;3413;47.680;9.166;2022-11-11T08:41:07;13.20;99.90
6752;DHT22;3413;47.680;9.166;2022-11-11T08:46:27;13.30;99.90
6752;DHT22;3413;47.680;9.166;2022-11-11T08:51:48;13.30;99.90
6752;DHT22;3413;47.680;9.166;2022-11-11T08:57:08;13.40;99.90
6752;DHT22;3413;47.680;9.166;2022-11-11T09:02:41;13.40;99.90
6752;DHT22;3413;47.680;9.166;2022-11-11T09:08:04;13.40;99.90
6752;DHT22;3413;47.680;9.166;2022-11-11T09:13:28;13.50;99.90
6752;DHT22;3413;47.680;9.166;2022-11-11T09:18:48;13.60;99.90
6752;DHT22;3413;47.680;9.166;2022-11-11T09:24:09;13.60;99.90
6752;DHT22;3413;47.680;9.166;2022-11-11T09:29:29;13.60;99.90
6752;DHT22;3413;47.680;9.166;2022-11-11T09:34:50;13.70;99.90
6752;DHT22;3413;47.680;9.166;2022-11-11T09:40:18;13.70;99.90
6752;DHT22;3413;47.680;9.166;2022-11-11T09:57:37;13.80;99.90
6752;DHT22;3413;47.680;9.166;2022-11-11T10:03:21;13.80;99.90
6752;DHT22;3413;47.680;9.166;2022-11-11T10:08:50;13.80;99.90
6752;DHT22;3413;47.680;9.166;2022-11-11T10:14:14;13.80;99.90
6752;DHT22;3413;47.680;9.166;2022-11-11T10:20:09;13.80;99.90
6752;DHT22;3413;47.680;9.166;2022-11-11T10:25:30;13.80;99.90
6752;DHT22;3413;47.680;9.166;2022-11-11T10:30:51;13.90;99.90
6752;DHT22;3413;47.680;9.166;2022-11-11T10:36:16;14.00;99.90
6752;DHT22;3413;47.680;9.166;2022-11-11T10:41:42;14.10;99.90
6752;DHT22;3413;47.680;9.166;2022-11-11T10:52:38;14.10;99.90
6752;DHT22;3413;47.680;9.166;2022-11-11T10:58:19;14.10;99.90
6752;DHT22;3413;47.680;9.166;2022-11-11T11:03:46;14.00;99.90
6752;DHT22;3413;47.680;9.166;2022-11-11T11:09:23;14.00;99.90
6752;DHT22;3413;47.680;9.166;2022-11-11T11:14:49;14.00;99.90
6752;DHT22;3413;47.680;9.166;2022-11-11T11:20:13;14.00;99.90
6752;DHT22;3413;47.680;9.166;2022-11-11T11:25:35;14.00;99.90
6752;DHT22;3413;47.680;9.166;2022-11-11T11:31:06;14.10;99.90
6752;DHT22;3413;47.680;9.166;2022-11-11T11:36:26;14.20;99.90
6752;DHT22;3413;47.680;9.166;2022-11-11T11:41:47;14.30;99.90
6752;DHT22;3413;47.680;9.166;2022-11-11T12:21:06;14.50;99.90
6752;DHT22;3413;47.680;9.166;2022-11-11T12:27:02;14.50;99.90
6752;DHT22;3413;47.680;9.166;2022-11-11T12:32:37;14.60;99.90
6752;DHT22;3413;47.680;9.166;2022-11-11T12:44:11;14.60;99.90
6752;DHT22;3413;47.680;9.166;2022-11-11T13:25:10;14.70;99.90
6752;DHT22;3413;47.680;9.166;2022-11-11T13:36:08;14.60;99.90
6752;DHT22;3413;47.680;9.166;2022-11-11T13:41:37;14.70;99.90
6752;DHT22;3413;47.680;9.166;2022-11-11T13:47:03;14.70;99.90
6752;DHT22;3413;47.680;9.166;2022-11-11T13:52:29;14.60;99.90
6752;DHT22;3413;47.680;9.166;2022-11-11T13:57:51;14.60;99.90
6752;DHT22;3413;47.680;9.166;2022-11-11T14:19:55;14.80;99.90
6752;DHT22;3413;47.680;9.166;2022-11-11T14:25:23;14.80;99.90
6752;DHT22;3413;47.680;9.166;2022-11-11T14:30:44;14.80;99.90
6752;DHT22;3413;47.680;9.166;2022-11-11T14:47:52;14.90;99.90
6752;DHT22;3413;47.680;9.166;2022-11-11T14:53:18;14.90;99.90
6752;DHT22;3413;47.680;9.166;2022-11-11T14:58:39;14.90;99.90
6752;DHT22;3413;47.680;9.166;2022-11-11T15:04:02;14.80;99.90
6752;DHT22;3413;47.680;9.166;2022-11-11T15:26:29;14.80;99.90
6752;DHT22;3413;47.680;9.166;2022-11-11T15:37:37;14.80;99.90
6752;DHT22;3413;47.680;9.166;2022-11-11T15:42:58;14.80;99.90
6752;DHT22;3413;47.680;9.166;2022-11-11T15:48:42;14.70;99.90
6752;DHT22;3413;47.680;9.166;2022-11-11T15:54:20;14.70;99.90
6752;DHT22;3413;47.680;9.166;2022-11-11T15:59:42;14.70;99.90
6752;DHT22;3413;47.680;9.166;2022-11-11T16:05:03;14.80;99.90
6752;DHT22;3413;47.680;9.166;2022-11-11T16:10:32;14.80;99.90
6752;DHT22;3413;47.680;9.166;2022-11-11T16:16:03;14.70;99.90
6752;DHT22;3413;47.680;9.166;2022-11-11T16:26:55;14.50;99.90
6752;DHT22;3413;47.680;9.166;2022-11-11T16:37:52;14.40;99.90
6752;DHT22;3413;47.680;9.166;2022-11-11T16:43:32;14.30;99.90
6752;DHT22;3413;47.680;9.166;2022-11-11T16:48:53;14.20;99.90
6752;DHT22;3413;47.680;9.166;2022-11-11T16:54:20;14.10;99.90
6752;DHT22;3413;47.680;9.166;2022-11-11T16:59:45;14.00;99.90
6752;DHT22;3413;47.680;9.166;2022-11-11T17:05:07;13.80;99.90
6752;DHT22;3413;47.680;9.166;2022-11-11T17:10:28;13.80;99.90
6752;DHT22;3413;47.680;9.166;2022-11-11T17:15:59;13.70;99.90
6752;DHT22;3413;47.680;9.166;2022-11-11T17:21:23;13.70;99.90
6752;DHT22;3413;47.680;9.166;2022-11-11T17:26:43;13.60;99.90
6752;DHT22;3413;47.680;9.166;2022-11-11T17:32:04;13.60;99.90
6752;DHT22;3413;47.680;9.166;2022-11-11T17:37:25;13.60;99.90
6752;DHT22;3413;47.680;9.166;2022-11-11T17:42:45;13.70;99.90
6752;DHT22;3413;47.680;9.166;2022-11-11T17:48:07;13.70;99.90
6752;DHT22;3413;47.680;9.166;2022-11-11T17:53:32;13.90;99.90
6752;DHT22;3413;47.680;9.166;2022-11-11T17:58:53;13.90;99.90
6752;DHT22;3413;47.680;9.166;2022-11-11T18:04:14;13.90;99.90
6752;DHT22;3413;47.680;9.166;2022-11-11T18:09:35;14.00;99.90
6752;DHT22;3413;47.680;9.166;2022-11-11T18:14:56;13.90;99.90
6752;DHT22;3413;47.680;9.166;2022-11-11T18:20:16;13.80;99.90
6752;DHT22;3413;47.680;9.166;2022-11-11T18:25:37;13.80;99.90
6752;DHT22;3413;47.680;9.166;2022-11-11T18:31:08;13.80;99.90
6752;DHT22;3413;47.680;9.166;2022-11-11T18:36:29;13.80;99.90
6752;DHT22;3413;47.680;9.166;2022-11-11T18:41:49;13.80;99.90
6752;DHT22;3413;47.680;9.166;2022-11-11T18:47:10;13.70;99.90
6752;DHT22;3413;47.680;9.166;2022-11-11T18:52:30;13.70;99.90
6752;DHT22;3413;47.680;9.166;2022-11-11T18:57:51;13.60;99.90
6752;DHT22;3413;47.680;9.166;2022-11-11T19:03:12;13.60;99.90
6752;DHT22;3413;47.680;9.166;2022-11-11T19:08:36;13.70;99.90
6752;DHT22;3413;47.680;9.166;2022-11-11T19:13:56;13.60;99.90
6752;DHT22;3413;47.680;9.166;2022-11-11T19:19:17;13.60;99.90
6752;DHT22;3413;47.680;9.166;2022-11-11T19:24:38;13.60;99.90
6752;DHT22;3413;47.680;9.166;2022-11-11T19:29:59;13.60;99.90
6752;DHT22;3413;47.680;9.166;2022-11-11T19:35:19;13.60;99.90
6752;DHT22;3413;47.680;9.166;2022-11-11T19:40:40;13.50;99.90
6752;DHT22;3413;47.680;9.166;2022-11-11T19:46:01;13.40;99.90
6752;DHT22;3413;47.680;9.166;2022-11-11T19:51:24;13.50;99.90
6752;DHT22;3413;47.680;9.166;2022-11-11T19:56:45;13.50;99.90
6752;DHT22;3413;47.680;9.166;2022-11-11T20:02:08;13.40;99.90
6752;DHT22;3413;47.680;9.166;2022-11-11T20:07:28;13.40;99.90
6752;DHT22;3413;47.680;9.166;2022-11-11T20:12:50;13.30;99.90
6752;DHT22;3413;47.680;9.166;2022-11-11T20:18:11;13.30;99.90
6752;DHT22;3413;47.680;9.166;2022-11-11T20:23:39;13.30;99.90
6752;DHT22;3413;47.680;9.166;2022-11-11T20:29:00;13.30;99.90
6752;DHT22;3413;47.680;9.166;2022-11-11T20:34:20;13.20;99.90
6752;DHT22;3413;47.680;9.166;2022-11-11T20:39:41;13.30;99.90
6752;DHT22;3413;47.680;9.166;2022-11-11T20:45:01;13.40;99.90
6752;DHT22;3413;47.680;9.166;2022-11-11T20:50:22;13.40;99.90
6752;DHT22;3413;47.680;9.166;2022-11-11T20:55:43;13.40;99.90
6752;DHT22;3413;47.680;9.166;2022-11-11T21:01:09;13.40;99.90
6752;DHT22;3413;47.680;9.166;2022-11-11T21:06:30;13.50;99.90
6752;DHT22;3413;47.680;9.166;2022-11-11T21:11:50;13.30;99.90
6752;DHT22;3413;47.680;9.166;2022-11-11T21:17:11;13.20;99.90
6752;DHT22;3413;47.680;9.166;2022-11-11T21:22:32;13.10;99.90
6752;DHT22;3413;47.680;9.166;2022-11-11T21:27:52;13.10;99.90
6752;DHT22;3413;47.680;9.166;2022-11-11T21:33:13;13.10;99.90
6752;DHT22;3413;47.680;9.166;2022-11-11T21:38:37;13.10;99.90
6752;DHT22;3413;47.680;9.166;2022-11-11T21:43:58;13.10;99.90
6752;DHT22;3413;47.680;9.166;2022-11-11T21:49:19;13.00;99.90
6752;DHT22;3413;47.680;9.166;2022-11-11T21:54:40;12.90;99.90
6752;DHT22;3413;47.680;9.166;2022-11-11T22:00:00;12.90;99.90
6752;DHT22;3413;47.680;9.166;2022-11-11T22:05:21;12.90;99.90
6752;DHT22;3413;47.680;9.166;2022-11-11T22:10:41;12.90;99.90
6752;DHT22;3413;47.680;9.166;2022-11-11T22:16:05;12.80;99.90
6752;DHT22;3413;47.680;9.166;2022-11-11T22:21:27;12.80;99.90
6752;DHT22;3413;47.680;9.166;2022-11-11T22:26:48;12.90;99.90
6752;DHT22;3413;47.680;9.166;2022-11-11T22:32:09;13.00;99.90
6752;DHT22;3413;47.680;9.166;2022-11-11T22:37:30;13.10;99.90
6752;DHT22;3413;47.680;9.166;2022-11-11T22:42:50;13.20;99.90
6752;DHT22;3413;47.680;9.166;2022-11-11T22:48:11;13.10;99.90
6752;DHT22;3413;47.680;9.166;2022-11-11T22:53:31;13.20;99.90
6752;DHT22;3413;47.680;9.166;2022-11-11T22:58:52;13.20;99.90
6752;DHT22;3413;47.680;9.166;2022-11-11T23:04:13;13.20;99.90
6752;DHT22;3413;47.680;9.166;2022-11-11T23:09:33;13.20;99.90
6752;DHT22;3413;47.680;9.166;2022-11-11T23:14:58;13.10;99.90
6752;DHT22;3413;47.680;9.166;2022-11-11T23:20:19;13.00;99.90
6752;DHT22;3413;47.680;9.166;2022-11-11T23:25:39;13.00;99.90
6752;DHT22;3413;47.680;9.166;2022-11-11T23:36:26;12.90;99.90
6752;DHT22;3413;47.680;9.166;2022-11-11T23:41:47;12.90;99.90
6752;DHT22;3413;47.680;9.166;2022-11-11T23:47:07;12.80;99.90
6752;DHT22;3413;47.680;9.166;2022-11-11T23:52:28;12.80;99.90
6752;DHT22;3413;47.680;9.166;2022-11-11T23:57:48;12.60;99.90
